Phil's Backyard

 Latitude S 29° 46' 26"    Longitude E 151° 07' 14"    Elevation 586 m

:now: :today: :yesterday: :daily data: :this month: :this year: :records: :monthly records:
:gauges: :graphs: :weatherzone: :forum: :dashboard: :webcam:


A Fire Weather Index for personal weather stations

(See below the table for background)
Legend:
Low (0-210)
Very High (490 - 630)

Moderate (210 - 350)
Extreme (630 - 800)

High (350 - 490)
Catastrophic (800+)


Flame  Flame
71.2
Date Temp. (°C) Wind Speed (km/h) Rain (mm) RH Days since Rain pwsFWI
Prediction is active (including today!), values are above red line.
02/12/21 29.0 10.0 0.6 0.48 0 41.6
01/12/21 26.0 7.0 15.0 0.61 0 6.1
30/11/21 22.0 11.0 18.0 0.81 0 3.7
29/11/21 26.0 12.0 5.1 0.61 0 10.5
28/11/21 23.0 14.0 17.0 0.64 0 71.2
27/11/21 27.8 11.0 4.0 0.62 0 131.8
26/11/21 26.7 16.0 7.2 0.63 0 75.6
25/11/21 27.7 18.0 18.2 0.65 0 131.8
24/11/21 26.1 13.0 19.6 0.63 0 147.6
23/11/21 28.4 16.0 0.0 0.50 2 212.4
22/11/21 25.9 19.0 0.0 0.57 1 191.0
21/11/21 21.2 16.0 24.0 0.81 0 208.7
20/11/21 29.3 19.0 71.0 0.54 0 294.8
19/11/21 27.8 6.0 0.8 0.54 0 327.8
18/11/21 26.4 21.0 0.4 0.49 0 382.7
17/11/21 27.4 8.0 0.0 0.29 4 481.4
16/11/21 25.0 14.0 0.0 0.23 3 439.0
15/11/21 23.5 16.0 0.0 0.27 2 369.9
14/11/21 21.8 16.0 0.0 0.32 1 380.0
13/11/21 19.8 26.0 1.0 0.37 0 385.0
12/11/21 28.2 35.0 0.0 0.37 1 247.9
11/11/21 25.8 19.0 3.8 0.75 0 137.1
10/11/21 28.9 18.0 36.8 0.60 0 97.7
09/11/21 30.6 13.0 0.0 0.31 1 124.5
08/11/21 26.3 18.0 1.0 0.49 0 159.3
07/11/21 27.8 14.0 21.4 0.58 0 169.6
06/11/21 26.7 13.0 0.0 0.53 1 237.3
05/11/21 19.9 8.0 9.4 0.72 0 251.4
04/11/21 27.3 10.0 0.6 0.38 0 339.0
03/11/21 27.9 10.0 0.0 0.31 5 208.1
02/11/21 26.6 14.0 0.0 0.40 4 246.3
01/11/21 25.3 10.0 0.0 0.40 3 278.8
31/10/21 25.4 14.0 0.0 0.40 2 318.2
30/10/21 27.6 19.0 0.0 0.35 1 355.3
29/10/21 26.1 16.0 19.8 0.58 0 386.7
28/10/21 32.9 14.0 8.2 0.32 0 480.2
27/10/21 30.8 14.0 0.0 0.26 9 514.9
26/10/21 27.9 13.0 0.0 0.19 8 483.3
25/10/21 25.7 18.0 0.0 0.22 7 506.2
24/10/21 28.6 18.0 0.0 0.23 6 507.0
23/10/21 32.6 14.0 0.0 0.44 5 428.6
22/10/21 29.7 10.0 0.0 0.31 4 407.1
21/10/21 26.8 13.0 0.0 0.33 3 399.9
20/10/21 26.0 21.0 0.0 0.27 2 419.2
19/10/21 26.7 18.0 0.0 0.25 1 371.8
18/10/21 25.0 8.0 0.6 0.39 0 346.0
17/10/21 24.2 13.0 0.0 0.28 4 249.6
16/10/21 19.2 21.0 0.0 0.45 3 261.8
15/10/21 21.8 23.0 0.0 0.32 2 139.9
14/10/21 25.9 18.0 0.0 0.53 1 120.7
13/10/21 26.2 18.0 0.8 0.43 0 185.4
12/10/21 20.9 16.0 6.6 0.66 0 200.4
11/10/21 19.6 11.0 24.0 0.82 0 247.4
10/10/21 28.7 21.0 10.8 0.43 0 357.1
09/10/21 28.7 13.0 0.0 0.38 8 418.2
08/10/21 27.8 11.0 0.0 0.36 7 407.0
07/10/21 23.9 18.0 0.0 0.29 6 391.9
06/10/21 24.6 11.0 0.0 0.22 5 315.3
05/10/21 22.1 21.0 0.0 0.27 4 261.3
04/10/21 24.9 21.0 0.0 0.36 3 179.0

Science background here. Prediction: https://www.yourweather.co.uk/
:now: :today: :yesterday: :daily data: :this month: :this year: :records: :monthly records:
:gauges: :graphs: :weatherzone: :forum: :dashboard: ::
:
fire index: :fwi graphs: :top10: :extremes: :sysinfo:


Page updated daily at 9:00 AM
powered by CumulusMX v3.1.2 (3055) Valid HTML | Valid CSS
this page by Hans Rottier from the Cumulus Forum

Cumulus Top Weather Sites